OJAI/AMM METAR and TAF weather

Enter ICAO airport designator
Station Type Date Time Source
OJAI METAR 2019/05/27 09:00 UTC NOAA

OJAI 270900Z 10006KT 8000 NSC 31/M05 Q1015 NOSIG


Station Type Date Time Source
OJAI Decoded METAR 2019/05/27 09:00 UTC NOAA

Queen Alia Airport, Jordan (OJAI) 31-40N 035-58E
May 27, 2019 - 05:00 AM EDT / 2019.05.27 0900 UTC
Wind: from the E (100 degrees) at 7 MPH (6 KT):0
Visibility: 4 mile(s):0
Temperature: 87 F (31 C)
Dew Point: 23 F (-5 C)
Relative Humidity: 9%
Pressure (altimeter): 29.97 in. Hg (1015 hPa)
ob: OJAI 270900Z 10006KT 8000 NSC 31/M05 Q1015 NOSIG
cycle: 9

Station Type Date Time Source
OJAI TAF 2019/05/27 06:13 UTC NOAA

TAF OJAI 270500Z 2706/2812 30010KT 6000 NSC

Example: see airport list